Tamassee, South Carolina
Current Conditions -  °F | °C
As of 2:54 AM on Friday 28 Nov 2014 (Local Time) from KCEU Reporting Station
Clear Clear  
Wind Chill: 30°   Ceiling: Unl
Heat Index: 35°   Visibility: 10mi
Dew Point: 19°   Wind: 6mph
Humidity: 52%   Direction: 310°NW
Pressure: 30.32"   Gusts: NA
Location:  34.88°N, 83.02°W
Report Text: KCEU 280754Z AUTO 31005KT 10SM CLR 02/M07 A3032 RMK AO2 SLP270 T00171072
Loading
Personal Weather Stations






























Interactive Weather Map New forecast layout! Learn more

10-Day Weather Forecast

Advertisements
Track Severe Weather on mobile